createdAt,value
2023-03-06T00:00:07.231Z,9.35
2023-03-06T00:03:15.145Z,9.45
2023-03-06T00:06:18.624Z,9.57
2023-03-06T00:09:22.357Z,8.60
2023-03-06T00:12:27.641Z,9.00
2023-03-06T00:15:31.578Z,8.95
2023-03-06T00:18:35.009Z,9.02
2023-03-06T00:21:40.160Z,8.40
2023-03-06T00:24:44.780Z,8.57
2023-03-06T00:27:48.982Z,8.68
2023-03-06T00:30:52.415Z,8.73
2023-03-06T00:33:55.579Z,8.50
2023-03-06T00:36:58.779Z,8.40
2023-03-06T00:40:02.163Z,8.18
2023-03-06T00:43:05.468Z,8.52
2023-03-06T00:46:08.805Z,8.33
2023-03-06T00:49:12.515Z,7.78
2023-03-06T00:52:19.759Z,7.82
2023-03-06T00:55:22.965Z,8.07
2023-03-06T00:58:26.764Z,7.82
2023-03-06T01:01:33.232Z,8.25
2023-03-06T01:04:36.758Z,7.85
2023-03-06T01:07:40.845Z,7.78
2023-03-06T01:10:44.197Z,7.63
2023-03-06T01:13:47.894Z,7.85
2023-03-06T01:16:56.296Z,7.15
2023-03-06T01:19:59.658Z,7.35
2023-03-06T01:23:02.937Z,7.50
2023-03-06T01:26:06.810Z,7.53
2023-03-06T01:29:10.463Z,7.80
2023-03-06T01:32:13.977Z,7.93
2023-03-06T01:35:18.888Z,7.67
2023-03-06T01:38:22.511Z,7.25
2023-03-06T01:41:28.028Z,7.78
2023-03-06T01:44:31.782Z,7.80
2023-03-06T01:47:35.124Z,6.90
2023-03-06T01:50:38.441Z,8.10
2023-03-06T01:53:43.692Z,8.10
2023-03-06T01:56:50.005Z,8.15
2023-03-06T02:00:02.202Z,7.93
2023-03-06T02:03:28.533Z,7.53
2023-03-06T02:06:33.741Z,7.57
2023-03-06T02:09:40.005Z,8.38
2023-03-06T02:12:45.042Z,7.38
2023-03-06T02:15:48.369Z,8.02
2023-03-06T02:18:52.763Z,8.65
2023-03-06T02:21:59.077Z,7.83
2023-03-06T02:25:24.504Z,8.57
2023-03-06T02:28:27.932Z,7.28
2023-03-06T02:31:33.710Z,8.60
2023-03-06T02:34:39.767Z,7.87
2023-03-06T02:37:43.464Z,8.20
2023-03-06T02:40:50.272Z,7.78
2023-03-06T02:43:54.049Z,7.88
2023-03-06T02:46:57.254Z,7.93
2023-03-06T02:50:00.615Z,8.13
2023-03-06T02:53:04.461Z,7.70
2023-03-06T02:56:08.193Z,7.90
2023-03-06T02:59:12.316Z,7.87
2023-03-06T03:02:16.712Z,7.65
2023-03-06T03:05:21.017Z,7.75
2023-03-06T03:08:30.504Z,8.20
2023-03-06T03:11:37.407Z,7.90
2023-03-06T03:14:41.200Z,7.97
2023-03-06T03:17:44.685Z,8.18
2023-03-06T03:20:48.087Z,7.35
2023-03-06T03:23:51.360Z,7.97
2023-03-06T03:26:55.135Z,7.57
2023-03-06T03:30:00.408Z,7.22
2023-03-06T03:33:07.065Z,7.63
2023-03-06T03:36:10.748Z,7.13
2023-03-06T03:39:18.189Z,7.30
2023-03-06T03:42:21.885Z,7.38
2023-03-06T03:45:26.397Z,7.73
2023-03-06T03:48:30.339Z,7.10
2023-03-06T03:51:34.383Z,7.47
2023-03-06T03:54:37.747Z,7.35
2023-03-06T03:57:43.616Z,6.90
2023-03-06T04:00:47.951Z,6.93
2023-03-06T04:03:51.808Z,7.47
2023-03-06T04:06:55.583Z,7.43
2023-03-06T04:09:58.955Z,7.27
2023-03-06T04:13:04.124Z,6.90
2023-03-06T04:16:07.958Z,6.63
2023-03-06T04:19:13.776Z,7.20
2023-03-06T04:22:17.487Z,7.03
2023-03-06T04:25:21.209Z,7.25
2023-03-06T04:28:25.584Z,7.68
2023-03-06T04:31:29.252Z,7.97
2023-03-06T04:34:32.924Z,8.23
2023-03-06T04:37:36.938Z,7.65
2023-03-06T04:40:43.895Z,8.10
2023-03-06T04:43:48.556Z,7.45
2023-03-06T04:46:51.805Z,8.13
2023-03-06T04:49:55.156Z,8.68
2023-03-06T04:53:00.289Z,8.00
2023-03-06T04:56:08.199Z,8.00
2023-03-06T04:59:11.431Z,7.63
2023-03-06T05:02:14.834Z,8.13
2023-03-06T05:05:19.101Z,8.25
2023-03-06T05:08:23.816Z,8.93
2023-03-06T05:11:27.420Z,8.65
2023-03-06T05:14:31.711Z,9.32
2023-03-06T05:17:35.492Z,9.20
2023-03-06T05:20:38.881Z,9.63
2023-03-06T05:23:42.589Z,8.98
2023-03-06T05:26:45.874Z,9.40
2023-03-06T05:29:49.388Z,9.10
2023-03-06T05:32:52.935Z,9.50
2023-03-06T05:35:56.278Z,9.20
2023-03-06T05:38:59.547Z,8.80
2023-03-06T05:42:05.966Z,11.95
2023-03-06T05:45:10.357Z,9.13
2023-03-06T05:48:14.244Z,9.05
2023-03-06T05:51:17.574Z,8.03
2023-03-06T05:54:21.298Z,8.48
2023-03-06T05:57:25.627Z,8.70
2023-03-06T06:00:29.051Z,8.10
2023-03-06T06:03:32.381Z,8.82
2023-03-06T06:06:35.609Z,7.70
2023-03-06T06:09:39.086Z,8.02
2023-03-06T06:12:42.432Z,7.50
2023-03-06T06:15:45.758Z,8.10
2023-03-06T06:18:49.046Z,7.50
2023-03-06T06:21:54.374Z,6.15
2023-03-06T06:24:57.810Z,5.77
2023-03-06T06:28:01.196Z,8.52
2023-03-06T06:31:13.965Z,7.25
2023-03-06T06:34:19.540Z,7.50
2023-03-06T06:37:22.781Z,7.63
2023-03-06T06:40:27.630Z,6.93
2023-03-06T06:43:31.038Z,7.07
2023-03-06T06:49:58.953Z,7.45
2023-03-06T06:53:02.719Z,7.57
2023-03-06T06:56:06.497Z,7.38
2023-03-06T06:59:17.536Z,7.22
2023-03-06T07:02:23.784Z,6.10
2023-03-06T07:05:28.076Z,6.57
2023-03-06T07:08:31.663Z,6.38
2023-03-06T07:11:35.225Z,5.85
2023-03-06T07:14:39.522Z,7.00
2023-03-06T07:17:45.157Z,6.38
2023-03-06T07:20:48.572Z,5.20
2023-03-06T07:23:54.445Z,5.93
2023-03-06T07:26:59.631Z,6.18
2023-03-06T07:30:04.355Z,5.90
2023-03-06T07:33:10.879Z,5.13
2023-03-06T07:36:23.044Z,6.18
2023-03-06T07:39:28.221Z,5.55
2023-03-06T07:42:31.619Z,5.50
2023-03-06T07:45:39.641Z,7.03
2023-03-06T07:49:01.050Z,6.78
2023-03-06T07:52:11.663Z,6.05
2023-03-06T07:55:28.354Z,5.30
2023-03-06T07:59:32.999Z,6.15
2023-03-06T08:02:37.839Z,5.73
2023-03-06T08:10:37.767Z,5.88
2023-03-06T08:13:52.743Z,6.00
2023-03-06T08:16:57.054Z,6.15
2023-03-06T08:20:06.854Z,6.13
2023-03-06T08:23:12.008Z,6.13
2023-03-06T08:26:16.525Z,5.85
2023-03-06T08:29:19.640Z,6.38
2023-03-06T08:32:23.234Z,6.07
2023-03-06T08:35:26.714Z,6.57
2023-03-06T08:38:30.293Z,7.63
2023-03-06T08:41:34.140Z,6.93
2023-03-06T08:44:37.537Z,6.90
2023-03-06T08:47:41.344Z,6.68
2023-03-06T08:50:48.956Z,7.03
2023-03-06T08:53:53.479Z,6.43
2023-03-06T08:56:56.984Z,5.50
2023-03-06T09:00:00.603Z,5.38
2023-03-06T09:03:04.893Z,5.75
2023-03-06T09:06:09.796Z,5.10
2023-03-06T09:09:13.424Z,5.40
2023-03-06T09:12:28.081Z,4.97
2023-03-06T09:15:55.820Z,5.78
2023-03-06T09:18:59.538Z,5.55
2023-03-06T09:22:08.644Z,5.20
2023-03-06T09:25:13.900Z,5.68
2023-03-06T09:28:18.036Z,3.83
2023-03-06T09:31:21.830Z,5.72
2023-03-06T09:34:27.050Z,5.75
2023-03-06T09:37:32.276Z,4.90
2023-03-06T09:40:57.347Z,5.57
2023-03-06T09:44:16.152Z,5.32
2023-03-06T09:47:26.402Z,5.57
2023-03-06T09:50:46.167Z,6.30
2023-03-06T09:54:05.400Z,4.57
2023-03-06T09:57:26.807Z,3.70
2023-03-06T10:00:50.313Z,4.70
2023-03-06T10:03:59.151Z,4.63
2023-03-06T10:07:22.346Z,5.57
2023-03-06T10:15:41.283Z,5.60
2023-03-06T10:18:44.950Z,4.90
2023-03-06T10:21:54.405Z,4.55
2023-03-06T10:25:16.578Z,3.55
2023-03-06T10:28:33.270Z,3.80
2023-03-06T10:31:49.618Z,4.47
2023-03-06T10:34:59.968Z,4.45
2023-03-06T10:38:13.009Z,5.10
2023-03-06T10:41:35.838Z,4.70
2023-03-06T10:44:39.167Z,4.37
2023-03-06T10:47:45.114Z,4.70
2023-03-06T10:50:53.136Z,4.85
2023-03-06T10:54:02.120Z,5.53
2023-03-06T10:57:18.780Z,4.85
2023-03-06T11:00:36.085Z,3.30
2023-03-06T11:03:39.950Z,5.00
2023-03-06T11:06:46.632Z,4.68
2023-03-06T11:09:59.285Z,5.25
2023-03-06T11:13:07.693Z,5.50
2023-03-06T11:16:40.240Z,5.60
2023-03-06T11:19:44.156Z,4.27
2023-03-06T11:22:54.880Z,3.95
2023-03-06T11:26:03.844Z,3.70
2023-03-06T11:29:29.244Z,3.65
2023-03-06T11:32:43.224Z,3.47
2023-03-06T11:35:58.265Z,3.73
2023-03-06T11:39:14.465Z,3.67
2023-03-06T11:42:22.560Z,4.20
2023-03-06T11:45:46.396Z,5.00
2023-03-06T11:49:11.906Z,5.60
2023-03-06T11:52:25.128Z,3.00
2023-03-06T11:55:48.627Z,4.25
2023-03-06T11:59:09.366Z,5.30
2023-03-06T12:02:33.492Z,5.05
2023-03-06T12:06:02.655Z,5.10
2023-03-06T12:09:16.948Z,2.73
2023-03-06T12:12:52.496Z,5.30
2023-03-06T12:16:39.009Z,4.45
2023-03-06T12:20:17.294Z,4.82
2023-03-06T12:23:38.832Z,5.17
2023-03-06T12:26:42.161Z,3.00
2023-03-06T12:29:48.817Z,3.17
2023-03-06T12:33:03.313Z,5.68
2023-03-06T12:36:20.723Z,4.57
2023-03-06T12:39:58.642Z,5.13
2023-03-06T12:43:27.252Z,3.50
2023-03-06T12:46:47.524Z,3.70
2023-03-06T12:50:01.146Z,4.47
2023-03-06T12:53:07.833Z,3.90
2023-03-06T12:56:15.740Z,3.93
2023-03-06T12:59:57.443Z,5.40
2023-03-06T13:03:24.632Z,5.70
2023-03-06T13:06:54.217Z,4.18
2023-03-06T13:10:10.341Z,3.25
2023-03-06T13:13:33.403Z,4.03
2023-03-06T13:16:36.802Z,3.03
2023-03-06T13:19:40.211Z,4.95
2023-03-06T13:22:45.757Z,3.20
2023-03-06T13:25:50.777Z,5.13
2023-03-06T13:28:55.588Z,4.90
2023-03-06T13:32:01.931Z,3.80
2023-03-06T13:35:34.170Z,6.03
2023-03-06T13:38:59.199Z,6.20
2023-03-06T13:42:07.144Z,4.70
2023-03-06T13:45:19.532Z,5.17
2023-03-06T13:48:44.194Z,3.30
2023-03-06T13:51:54.619Z,4.93
2023-03-06T13:55:29.180Z,4.75
2023-03-06T13:58:48.479Z,3.67
2023-03-06T14:02:03.001Z,4.80
2023-03-06T14:05:18.053Z,3.50
2023-03-06T14:08:28.695Z,7.47
2023-03-06T14:11:33.102Z,3.80
2023-03-06T14:14:44.901Z,3.60
2023-03-06T14:18:13.937Z,4.17
2023-03-06T14:21:34.926Z,2.93
2023-03-06T14:24:43.637Z,3.40
2023-03-06T14:27:52.622Z,4.93
2023-03-06T14:30:58.819Z,5.18
2023-03-06T14:34:04.907Z,4.50
2023-03-06T14:37:20.717Z,5.67
2023-03-06T14:40:58.559Z,5.47
2023-03-06T14:44:34.507Z,5.10
2023-03-06T14:47:38.266Z,5.18
2023-03-06T14:50:42.239Z,3.57
2023-03-06T14:53:49.011Z,3.60
2023-03-06T14:56:57.153Z,3.85
2023-03-06T15:00:01.151Z,4.22
2023-03-06T15:03:09.407Z,3.20
2023-03-06T15:06:20.106Z,3.20
2023-03-06T15:09:32.634Z,3.20
2023-03-06T15:12:38.724Z,4.25
2023-03-06T15:15:42.423Z,3.20
2023-03-06T15:18:56.512Z,3.88
2023-03-06T15:21:59.790Z,3.43
2023-03-06T15:25:12.046Z,3.67
2023-03-06T15:28:25.992Z,3.28
2023-03-06T15:31:31.309Z,4.25
2023-03-06T15:34:34.571Z,6.05
2023-03-06T15:37:37.856Z,5.33
2023-03-06T15:40:53.772Z,5.60
2023-03-06T15:43:59.862Z,3.92
2023-03-06T15:47:08.831Z,5.88
2023-03-06T15:50:24.576Z,6.47
2023-03-06T15:53:39.153Z,5.23
2023-03-06T15:56:47.386Z,5.27
2023-03-06T15:59:56.152Z,5.75
2023-03-06T16:03:03.043Z,5.15
2023-03-06T16:06:06.453Z,4.97
2023-03-06T16:09:10.111Z,5.27
2023-03-06T16:12:19.435Z,5.78
2023-03-06T16:15:31.047Z,5.78
2023-03-06T16:18:34.483Z,5.68
2023-03-06T16:21:38.477Z,7.05
2023-03-06T16:24:44.860Z,7.20
2023-03-06T16:27:59.659Z,5.43
2023-03-06T16:31:03.739Z,6.90
2023-03-06T16:34:07.065Z,7.15
2023-03-06T16:37:13.064Z,6.65
2023-03-06T16:40:22.439Z,6.73
2023-03-06T16:43:25.894Z,6.95
2023-03-06T16:46:29.642Z,7.05
2023-03-06T16:49:40.173Z,9.95
2023-03-06T16:52:43.631Z,7.88
2023-03-06T16:55:47.182Z,7.53
2023-03-06T16:58:50.745Z,7.10
2023-03-06T17:01:54.233Z,7.55
2023-03-06T17:04:57.778Z,7.70
2023-03-06T17:08:01.239Z,7.97
2023-03-06T17:11:06.745Z,6.70
2023-03-06T17:14:10.398Z,6.75
2023-03-06T17:17:13.822Z,6.80
2023-03-06T17:20:18.372Z,7.10
2023-03-06T17:23:26.221Z,7.85
2023-03-06T17:26:29.572Z,7.53
2023-03-06T17:29:33.452Z,7.75
2023-03-06T17:32:41.071Z,6.72
2023-03-06T17:35:45.699Z,10.13
2023-03-06T17:38:48.962Z,7.00
2023-03-06T17:41:53.067Z,6.37
2023-03-06T17:44:58.685Z,6.63
2023-03-06T17:48:01.933Z,7.50
2023-03-06T17:51:06.132Z,7.53
2023-03-06T17:54:10.633Z,8.02
2023-03-06T17:57:13.994Z,8.70
2023-03-06T18:00:17.749Z,9.57
2023-03-06T18:03:21.486Z,9.02
2023-03-06T18:06:27.626Z,8.90
2023-03-06T18:09:32.216Z,9.55
2023-03-06T18:12:35.948Z,8.60
2023-03-06T18:15:40.990Z,7.50
2023-03-06T18:18:44.953Z,7.82
2023-03-06T18:21:48.697Z,7.30
2023-03-06T18:24:52.189Z,7.50
2023-03-06T18:27:55.760Z,8.10
2023-03-06T18:30:59.473Z,7.18
2023-03-06T18:34:07.474Z,7.63
2023-03-06T18:37:10.997Z,7.90
2023-03-06T18:40:14.777Z,9.65
2023-03-06T18:43:18.404Z,8.87
2023-03-06T18:46:22.024Z,8.60
2023-03-06T18:49:25.466Z,8.73
2023-03-06T18:52:30.626Z,8.85
2023-03-06T18:55:34.519Z,9.23
2023-03-06T18:58:38.022Z,8.87
2023-03-06T19:01:45.923Z,10.27
2023-03-06T19:04:49.192Z,10.13
2023-03-06T19:07:52.789Z,9.75
2023-03-06T19:11:00.893Z,10.73
2023-03-06T19:14:04.505Z,10.80
2023-03-06T19:17:07.987Z,9.70
2023-03-06T19:20:12.102Z,9.13
2023-03-06T19:23:15.366Z,9.15
2023-03-06T19:26:19.091Z,8.27
2023-03-06T19:29:22.225Z,8.83
2023-03-06T19:32:25.819Z,8.98
2023-03-06T19:35:29.760Z,8.85
2023-03-06T19:38:33.641Z,9.02
2023-03-06T19:41:37.582Z,9.40
2023-03-06T19:44:41.652Z,9.65
2023-03-06T19:47:45.255Z,9.80
2023-03-06T19:50:48.773Z,11.57
2023-03-06T19:53:52.735Z,15.93
2023-03-06T19:56:56.481Z,21.33
2023-03-06T20:00:01.792Z,21.55
2023-03-06T20:03:15.932Z,21.50
2023-03-06T20:06:20.901Z,18.08
2023-03-06T20:09:24.483Z,17.73
2023-03-06T20:12:28.085Z,17.40
2023-03-06T20:15:31.540Z,18.30
2023-03-06T20:18:35.258Z,15.50
2023-03-06T20:21:39.626Z,13.77
2023-03-06T20:24:43.112Z,13.20
2023-03-06T20:27:46.721Z,11.40
2023-03-06T20:30:50.345Z,11.27
2023-03-06T20:33:56.555Z,10.75
2023-03-06T20:36:59.962Z,10.48
2023-03-06T20:40:03.598Z,9.87
2023-03-06T20:43:07.299Z,9.82
2023-03-06T20:46:12.296Z,7.18
2023-03-06T20:49:16.066Z,7.93
2023-03-06T20:52:19.418Z,6.20
2023-03-06T20:55:23.325Z,6.35
2023-03-06T20:58:30.207Z,7.47
2023-03-06T21:01:36.139Z,7.55
2023-03-06T21:04:41.111Z,7.97
2023-03-06T21:07:44.608Z,7.53
2023-03-06T21:10:48.332Z,7.32
2023-03-06T21:13:53.122Z,6.10
2023-03-06T21:16:56.498Z,7.15
2023-03-06T21:20:00.113Z,7.40
2023-03-06T21:23:04.146Z,6.80
2023-03-06T21:26:07.684Z,7.88
2023-03-06T21:29:11.124Z,7.93
2023-03-06T21:32:14.614Z,8.32
2023-03-06T21:35:18.850Z,7.97
2023-03-06T21:38:22.150Z,7.23
2023-03-06T21:41:28.577Z,7.97
2023-03-06T21:44:31.858Z,8.30
2023-03-06T21:47:38.965Z,8.05
2023-03-06T21:50:42.995Z,8.30
2023-03-06T21:53:48.008Z,8.53
2023-03-06T21:56:51.235Z,8.48
2023-03-06T21:59:54.488Z,8.88
2023-03-06T22:02:57.643Z,9.02
2023-03-06T22:06:08.914Z,9.85
2023-03-06T22:09:13.772Z,8.57
2023-03-06T22:12:17.045Z,8.98
2023-03-06T22:15:21.851Z,9.13
2023-03-06T22:18:25.129Z,10.00
2023-03-06T22:21:28.748Z,9.73
2023-03-06T22:24:32.033Z,10.00
2023-03-06T22:27:35.178Z,10.10
2023-03-06T22:30:38.497Z,10.60
2023-03-06T22:33:42.596Z,10.55
2023-03-06T22:36:45.889Z,10.73
2023-03-06T22:39:49.260Z,10.10
2023-03-06T22:42:52.711Z,10.20
2023-03-06T22:46:00.260Z,10.45
2023-03-06T22:49:03.838Z,9.90
2023-03-06T22:52:07.281Z,9.85
2023-03-06T22:55:10.775Z,10.20
2023-03-06T22:58:14.027Z,9.80
2023-03-06T23:01:29.053Z,9.77
2023-03-06T23:04:32.341Z,9.10
2023-03-06T23:07:35.726Z,9.23
2023-03-06T23:10:39.824Z,9.35
2023-03-06T23:14:01.467Z,9.33
2023-03-06T23:17:23.279Z,8.65
2023-03-06T23:20:45.141Z,9.07
2023-03-06T23:24:07.591Z,8.40
2023-03-06T23:27:11.154Z,9.47
2023-03-06T23:30:15.948Z,9.80
2023-03-06T23:33:19.220Z,9.02
2023-03-06T23:36:22.498Z,9.20
2023-03-06T23:39:25.873Z,9.87
2023-03-06T23:42:29.184Z,8.90
2023-03-06T23:45:32.532Z,8.43
2023-03-06T23:48:38.149Z,8.20
2023-03-06T23:51:41.401Z,7.33
2023-03-06T23:54:45.146Z,7.97
2023-03-06T23:57:48.543Z,7.65
